sensor_id;sensor_type;location;lat;lon;timestamp;P1;durP1;ratioP1;P2;durP2;ratioP2
26407;SDS011;14583;43.604;1.364;2023-11-19T00:00:07;45.60;;;29.55;;
26407;SDS011;14583;43.604;1.364;2023-11-19T00:02:39;48.80;;;31.92;;
26407;SDS011;14583;43.604;1.364;2023-11-19T00:05:05;45.65;;;29.63;;
26407;SDS011;14583;43.604;1.364;2023-11-19T00:07:34;50.90;;;30.85;;
26407;SDS011;14583;43.604;1.364;2023-11-19T00:10:01;49.17;;;31.92;;
26407;SDS011;14583;43.604;1.364;2023-11-19T00:12:31;46.55;;;28.75;;
26407;SDS011;14583;43.604;1.364;2023-11-19T00:14:57;42.22;;;27.08;;
26407;SDS011;14583;43.604;1.364;2023-11-19T00:17:23;42.85;;;27.95;;
26407;SDS011;14583;43.604;1.364;2023-11-19T00:19:49;45.47;;;26.90;;
26407;SDS011;14583;43.604;1.364;2023-11-19T00:22:16;41.25;;;27.25;;
26407;SDS011;14583;43.604;1.364;2023-11-19T00:24:42;40.15;;;25.80;;
26407;SDS011;14583;43.604;1.364;2023-11-19T00:27:07;44.55;;;26.00;;
26407;SDS011;14583;43.604;1.364;2023-11-19T00:29:33;40.60;;;24.92;;
26407;SDS011;14583;43.604;1.364;2023-11-19T00:31:59;38.85;;;25.60;;
26407;SDS011;14583;43.604;1.364;2023-11-19T00:34:24;39.53;;;26.42;;
26407;SDS011;14583;43.604;1.364;2023-11-19T00:36:51;41.40;;;27.40;;
26407;SDS011;14583;43.604;1.364;2023-11-19T00:39:16;41.30;;;27.23;;
26407;SDS011;14583;43.604;1.364;2023-11-19T00:41:42;40.85;;;26.27;;
26407;SDS011;14583;43.604;1.364;2023-11-19T00:44:08;40.25;;;26.55;;
26407;SDS011;14583;43.604;1.364;2023-11-19T00:46:34;41.50;;;27.60;;
26407;SDS011;14583;43.604;1.364;2023-11-19T00:48:59;41.35;;;26.98;;
26407;SDS011;14583;43.604;1.364;2023-11-19T00:51:26;42.08;;;28.75;;
26407;SDS011;14583;43.604;1.364;2023-11-19T00:53:51;41.38;;;27.88;;
26407;SDS011;14583;43.604;1.364;2023-11-19T00:56:20;42.15;;;26.60;;
26407;SDS011;14583;43.604;1.364;2023-11-19T00:58:46;39.03;;;26.23;;
26407;SDS011;14583;43.604;1.364;2023-11-19T01:01:12;40.83;;;24.80;;
26407;SDS011;14583;43.604;1.364;2023-11-19T01:03:38;35.55;;;24.85;;
26407;SDS011;14583;43.604;1.364;2023-11-19T01:06:04;30.88;;;21.92;;
26407;SDS011;14583;43.604;1.364;2023-11-19T01:08:30;32.38;;;22.05;;
26407;SDS011;14583;43.604;1.364;2023-11-19T01:10:56;31.83;;;21.77;;
26407;SDS011;14583;43.604;1.364;2023-11-19T01:13:22;31.58;;;20.35;;
26407;SDS011;14583;43.604;1.364;2023-11-19T01:15:47;31.52;;;21.17;;
26407;SDS011;14583;43.604;1.364;2023-11-19T01:18:15;30.90;;;21.73;;
26407;SDS011;14583;43.604;1.364;2023-11-19T01:20:41;37.88;;;22.17;;
26407;SDS011;14583;43.604;1.364;2023-11-19T01:23:07;36.53;;;21.83;;
26407;SDS011;14583;43.604;1.364;2023-11-19T01:25:33;38.05;;;22.65;;
26407;SDS011;14583;43.604;1.364;2023-11-19T01:27:59;37.33;;;24.50;;
26407;SDS011;14583;43.604;1.364;2023-11-19T01:30:24;38.17;;;24.58;;
26407;SDS011;14583;43.604;1.364;2023-11-19T01:32:51;37.80;;;24.30;;
26407;SDS011;14583;43.604;1.364;2023-11-19T01:35:16;37.40;;;23.58;;
26407;SDS011;14583;43.604;1.364;2023-11-19T01:37:42;31.40;;;22.58;;
26407;SDS011;14583;43.604;1.364;2023-11-19T01:40:08;38.45;;;24.85;;
26407;SDS011;14583;43.604;1.364;2023-11-19T01:42:37;35.30;;;23.35;;
26407;SDS011;14583;43.604;1.364;2023-11-19T01:45:06;37.67;;;24.08;;
26407;SDS011;14583;43.604;1.364;2023-11-19T01:47:33;34.72;;;23.40;;
26407;SDS011;14583;43.604;1.364;2023-11-19T01:50:00;38.15;;;24.13;;
26407;SDS011;14583;43.604;1.364;2023-11-19T01:52:31;32.75;;;22.90;;
26407;SDS011;14583;43.604;1.364;2023-11-19T01:54:59;31.92;;;22.85;;
26407;SDS011;14583;43.604;1.364;2023-11-19T01:57:25;36.22;;;23.42;;
26407;SDS011;14583;43.604;1.364;2023-11-19T01:59:51;31.92;;;22.20;;
26407;SDS011;14583;43.604;1.364;2023-11-19T02:02:18;33.22;;;24.25;;
26407;SDS011;14583;43.604;1.364;2023-11-19T02:04:49;35.70;;;21.67;;
26407;SDS011;14583;43.604;1.364;2023-11-19T02:07:16;32.47;;;21.42;;
26407;SDS011;14583;43.604;1.364;2023-11-19T02:09:42;27.77;;;20.30;;
26407;SDS011;14583;43.604;1.364;2023-11-19T02:12:09;26.25;;;19.65;;
26407;SDS011;14583;43.604;1.364;2023-11-19T02:14:36;29.45;;;19.95;;
26407;SDS011;14583;43.604;1.364;2023-11-19T02:17:03;32.58;;;19.90;;
26407;SDS011;14583;43.604;1.364;2023-11-19T02:19:29;34.97;;;19.35;;
26407;SDS011;14583;43.604;1.364;2023-11-19T02:21:55;30.40;;;18.48;;
26407;SDS011;14583;43.604;1.364;2023-11-19T02:24:21;25.25;;;17.77;;
26407;SDS011;14583;43.604;1.364;2023-11-19T02:29:21;27.30;;;17.48;;
26407;SDS011;14583;43.604;1.364;2023-11-19T02:31:47;25.23;;;16.60;;
26407;SDS011;14583;43.604;1.364;2023-11-19T02:34:12;24.52;;;17.55;;
26407;SDS011;14583;43.604;1.364;2023-11-19T02:36:38;28.83;;;17.42;;
26407;SDS011;14583;43.604;1.364;2023-11-19T02:39:08;26.55;;;16.85;;
26407;SDS011;14583;43.604;1.364;2023-11-19T02:41:37;27.05;;;17.90;;
26407;SDS011;14583;43.604;1.364;2023-11-19T02:44:04;27.67;;;16.85;;
26407;SDS011;14583;43.604;1.364;2023-11-19T02:46:31;24.48;;;17.63;;
26407;SDS011;14583;43.604;1.364;2023-11-19T02:48:57;25.80;;;16.40;;
26407;SDS011;14583;43.604;1.364;2023-11-19T02:51:22;31.83;;;17.48;;
26407;SDS011;14583;43.604;1.364;2023-11-19T02:53:48;28.35;;;17.55;;
26407;SDS011;14583;43.604;1.364;2023-11-19T02:56:14;25.42;;;17.77;;
26407;SDS011;14583;43.604;1.364;2023-11-19T02:58:51;26.95;;;17.52;;
26407;SDS011;14583;43.604;1.364;2023-11-19T03:01:23;25.15;;;16.98;;
26407;SDS011;14583;43.604;1.364;2023-11-19T03:03:55;25.88;;;17.17;;
26407;SDS011;14583;43.604;1.364;2023-11-19T03:06:26;22.20;;;15.98;;
26407;SDS011;14583;43.604;1.364;2023-11-19T03:08:52;24.50;;;15.65;;
26407;SDS011;14583;43.604;1.364;2023-11-19T03:11:19;25.73;;;16.13;;
26407;SDS011;14583;43.604;1.364;2023-11-19T03:13:45;23.20;;;15.70;;
26407;SDS011;14583;43.604;1.364;2023-11-19T03:16:14;25.20;;;15.48;;
26407;SDS011;14583;43.604;1.364;2023-11-19T03:18:41;23.63;;;15.85;;
26407;SDS011;14583;43.604;1.364;2023-11-19T03:21:07;22.10;;;16.63;;
26407;SDS011;14583;43.604;1.364;2023-11-19T03:23:33;22.13;;;15.43;;
26407;SDS011;14583;43.604;1.364;2023-11-19T03:26:00;19.65;;;14.27;;
26407;SDS011;14583;43.604;1.364;2023-11-19T03:28:28;25.55;;;14.65;;
26407;SDS011;14583;43.604;1.364;2023-11-19T03:30:54;36.92;;;15.73;;
26407;SDS011;14583;43.604;1.364;2023-11-19T03:33:20;22.65;;;15.82;;
26407;SDS011;14583;43.604;1.364;2023-11-19T03:35:46;24.88;;;15.30;;
26407;SDS011;14583;43.604;1.364;2023-11-19T03:38:11;22.65;;;14.40;;
26407;SDS011;14583;43.604;1.364;2023-11-19T03:40:38;25.00;;;14.05;;
26407;SDS011;14583;43.604;1.364;2023-11-19T03:43:04;24.02;;;13.52;;
26407;SDS011;14583;43.604;1.364;2023-11-19T03:45:30;21.67;;;12.98;;
26407;SDS011;14583;43.604;1.364;2023-11-19T03:47:56;23.35;;;13.07;;
26407;SDS011;14583;43.604;1.364;2023-11-19T03:50:22;21.70;;;13.95;;
26407;SDS011;14583;43.604;1.364;2023-11-19T03:52:48;22.95;;;14.20;;
26407;SDS011;14583;43.604;1.364;2023-11-19T03:55:17;22.20;;;13.25;;
26407;SDS011;14583;43.604;1.364;2023-11-19T03:57:43;21.65;;;14.65;;
26407;SDS011;14583;43.604;1.364;2023-11-19T04:00:08;22.30;;;13.00;;
26407;SDS011;14583;43.604;1.364;2023-11-19T04:02:36;24.83;;;14.35;;
26407;SDS011;14583;43.604;1.364;2023-11-19T04:05:02;25.30;;;14.63;;
26407;SDS011;14583;43.604;1.364;2023-11-19T04:07:30;23.17;;;14.27;;
26407;SDS011;14583;43.604;1.364;2023-11-19T04:09:56;23.60;;;14.30;;
26407;SDS011;14583;43.604;1.364;2023-11-19T04:12:22;24.48;;;13.93;;
26407;SDS011;14583;43.604;1.364;2023-11-19T04:14:48;21.10;;;14.43;;
26407;SDS011;14583;43.604;1.364;2023-11-19T04:17:13;28.48;;;13.90;;
26407;SDS011;14583;43.604;1.364;2023-11-19T04:19:39;22.75;;;11.93;;
26407;SDS011;14583;43.604;1.364;2023-11-19T04:22:09;21.60;;;12.52;;
26407;SDS011;14583;43.604;1.364;2023-11-19T04:24:35;21.60;;;12.55;;
26407;SDS011;14583;43.604;1.364;2023-11-19T04:27:01;23.25;;;12.85;;
26407;SDS011;14583;43.604;1.364;2023-11-19T04:29:29;17.05;;;11.77;;
26407;SDS011;14583;43.604;1.364;2023-11-19T04:31:55;21.40;;;12.52;;
26407;SDS011;14583;43.604;1.364;2023-11-19T04:34:21;23.00;;;13.95;;
26407;SDS011;14583;43.604;1.364;2023-11-19T04:36:47;20.08;;;13.00;;
26407;SDS011;14583;43.604;1.364;2023-11-19T04:39:13;18.80;;;12.60;;
26407;SDS011;14583;43.604;1.364;2023-11-19T04:41:50;21.38;;;12.80;;
26407;SDS011;14583;43.604;1.364;2023-11-19T04:44:19;22.77;;;11.90;;
26407;SDS011;14583;43.604;1.364;2023-11-19T04:46:45;21.10;;;12.40;;
26407;SDS011;14583;43.604;1.364;2023-11-19T04:49:11;22.10;;;12.50;;
26407;SDS011;14583;43.604;1.364;2023-11-19T04:51:39;23.75;;;11.85;;
26407;SDS011;14583;43.604;1.364;2023-11-19T04:54:08;20.45;;;11.25;;
26407;SDS011;14583;43.604;1.364;2023-11-19T04:56:34;19.88;;;11.50;;
26407;SDS011;14583;43.604;1.364;2023-11-19T04:59:03;19.17;;;11.88;;
26407;SDS011;14583;43.604;1.364;2023-11-19T05:01:30;22.55;;;11.77;;
26407;SDS011;14583;43.604;1.364;2023-11-19T05:03:57;17.83;;;10.75;;
26407;SDS011;14583;43.604;1.364;2023-11-19T05:06:25;19.23;;;11.50;;
26407;SDS011;14583;43.604;1.364;2023-11-19T05:08:53;24.77;;;10.77;;
26407;SDS011;14583;43.604;1.364;2023-11-19T05:11:19;19.38;;;12.00;;
26407;SDS011;14583;43.604;1.364;2023-11-19T05:13:45;16.58;;;11.05;;
26407;SDS011;14583;43.604;1.364;2023-11-19T05:16:11;17.85;;;11.35;;
26407;SDS011;14583;43.604;1.364;2023-11-19T05:18:41;20.23;;;10.90;;
26407;SDS011;14583;43.604;1.364;2023-11-19T05:21:07;16.05;;;10.48;;
26407;SDS011;14583;43.604;1.364;2023-11-19T05:23:33;15.25;;;10.50;;
26407;SDS011;14583;43.604;1.364;2023-11-19T05:25:59;20.30;;;10.32;;
26407;SDS011;14583;43.604;1.364;2023-11-19T05:28:26;17.45;;;11.00;;
26407;SDS011;14583;43.604;1.364;2023-11-19T05:30:51;18.83;;;11.13;;
26407;SDS011;14583;43.604;1.364;2023-11-19T05:33:17;18.52;;;10.60;;
26407;SDS011;14583;43.604;1.364;2023-11-19T05:35:43;18.05;;;11.77;;
26407;SDS011;14583;43.604;1.364;2023-11-19T05:38:08;18.92;;;10.00;;
26407;SDS011;14583;43.604;1.364;2023-11-19T05:40:34;18.02;;;10.80;;
26407;SDS011;14583;43.604;1.364;2023-11-19T05:43:00;14.80;;;10.43;;
26407;SDS011;14583;43.604;1.364;2023-11-19T05:45:26;15.50;;;10.70;;
26407;SDS011;14583;43.604;1.364;2023-11-19T05:47:52;15.65;;;9.48;;
26407;SDS011;14583;43.604;1.364;2023-11-19T05:50:18;18.95;;;10.80;;
26407;SDS011;14583;43.604;1.364;2023-11-19T05:52:44;18.40;;;11.02;;
26407;SDS011;14583;43.604;1.364;2023-11-19T05:55:10;15.80;;;10.85;;
26407;SDS011;14583;43.604;1.364;2023-11-19T05:57:38;17.15;;;11.02;;
26407;SDS011;14583;43.604;1.364;2023-11-19T06:00:07;18.40;;;11.20;;
26407;SDS011;14583;43.604;1.364;2023-11-19T06:02:35;17.38;;;10.85;;
26407;SDS011;14583;43.604;1.364;2023-11-19T06:05:03;15.93;;;10.90;;
26407;SDS011;14583;43.604;1.364;2023-11-19T06:07:31;15.57;;;10.55;;
26407;SDS011;14583;43.604;1.364;2023-11-19T06:09:57;16.13;;;10.27;;
26407;SDS011;14583;43.604;1.364;2023-11-19T06:12:23;19.00;;;10.70;;
26407;SDS011;14583;43.604;1.364;2023-11-19T06:14:48;19.45;;;10.90;;
26407;SDS011;14583;43.604;1.364;2023-11-19T06:17:14;20.58;;;10.90;;
26407;SDS011;14583;43.604;1.364;2023-11-19T06:19:40;15.18;;;10.43;;
26407;SDS011;14583;43.604;1.364;2023-11-19T06:22:05;15.50;;;10.07;;
26407;SDS011;14583;43.604;1.364;2023-11-19T06:24:31;14.80;;;10.40;;
26407;SDS011;14583;43.604;1.364;2023-11-19T06:26:57;17.33;;;10.50;;
26407;SDS011;14583;43.604;1.364;2023-11-19T06:29:23;16.92;;;10.20;;
26407;SDS011;14583;43.604;1.364;2023-11-19T06:31:49;15.98;;;10.45;;
26407;SDS011;14583;43.604;1.364;2023-11-19T06:34:16;17.40;;;10.80;;
26407;SDS011;14583;43.604;1.364;2023-11-19T06:36:42;17.73;;;10.65;;
26407;SDS011;14583;43.604;1.364;2023-11-19T06:39:08;24.55;;;11.20;;
26407;SDS011;14583;43.604;1.364;2023-11-19T06:41:35;20.52;;;10.77;;
26407;SDS011;14583;43.604;1.364;2023-11-19T06:44:03;17.42;;;10.73;;
26407;SDS011;14583;43.604;1.364;2023-11-19T06:46:29;15.38;;;10.32;;
26407;SDS011;14583;43.604;1.364;2023-11-19T06:48:56;21.15;;;10.23;;
26407;SDS011;14583;43.604;1.364;2023-11-19T06:51:22;16.80;;;10.48;;
26407;SDS011;14583;43.604;1.364;2023-11-19T06:53:49;18.98;;;10.75;;
26407;SDS011;14583;43.604;1.364;2023-11-19T06:56:21;21.30;;;10.48;;
26407;SDS011;14583;43.604;1.364;2023-11-19T07:01:17;20.67;;;10.80;;
26407;SDS011;14583;43.604;1.364;2023-11-19T07:03:46;15.15;;;10.13;;
26407;SDS011;14583;43.604;1.364;2023-11-19T07:06:12;14.40;;;9.88;;
26407;SDS011;14583;43.604;1.364;2023-11-19T07:08:39;18.02;;;10.27;;
26407;SDS011;14583;43.604;1.364;2023-11-19T07:11:12;19.58;;;10.07;;
26407;SDS011;14583;43.604;1.364;2023-11-19T07:13:39;15.93;;;9.90;;
26407;SDS011;14583;43.604;1.364;2023-11-19T07:16:06;20.63;;;10.77;;
26407;SDS011;14583;43.604;1.364;2023-11-19T07:18:34;15.23;;;9.48;;
26407;SDS011;14583;43.604;1.364;2023-11-19T07:21:01;14.60;;;9.30;;
26407;SDS011;14583;43.604;1.364;2023-11-19T07:23:28;17.23;;;10.10;;
26407;SDS011;14583;43.604;1.364;2023-11-19T07:25:53;16.35;;;9.40;;
26407;SDS011;14583;43.604;1.364;2023-11-19T07:28:19;20.05;;;9.82;;
26407;SDS011;14583;43.604;1.364;2023-11-19T07:30:45;13.85;;;9.55;;
26407;SDS011;14583;43.604;1.364;2023-11-19T07:33:11;19.85;;;9.80;;
26407;SDS011;14583;43.604;1.364;2023-11-19T07:35:38;16.77;;;9.50;;
26407;SDS011;14583;43.604;1.364;2023-11-19T07:38:06;14.40;;;9.27;;
26407;SDS011;14583;43.604;1.364;2023-11-19T07:40:32;17.15;;;9.18;;
26407;SDS011;14583;43.604;1.364;2023-11-19T07:42:57;22.73;;;10.13;;
26407;SDS011;14583;43.604;1.364;2023-11-19T07:45:23;23.80;;;10.25;;
26407;SDS011;14583;43.604;1.364;2023-11-19T07:47:49;19.52;;;9.75;;
26407;SDS011;14583;43.604;1.364;2023-11-19T07:50:16;17.13;;;9.55;;
26407;SDS011;14583;43.604;1.364;2023-11-19T07:52:44;15.32;;;10.32;;
26407;SDS011;14583;43.604;1.364;2023-11-19T07:55:10;18.17;;;9.88;;
26407;SDS011;14583;43.604;1.364;2023-11-19T07:57:35;17.83;;;10.52;;
26407;SDS011;14583;43.604;1.364;2023-11-19T08:00:01;17.10;;;10.85;;
26407;SDS011;14583;43.604;1.364;2023-11-19T08:02:28;18.42;;;10.13;;
26407;SDS011;14583;43.604;1.364;2023-11-19T08:04:54;17.85;;;10.55;;
26407;SDS011;14583;43.604;1.364;2023-11-19T08:07:20;18.67;;;10.82;;
26407;SDS011;14583;43.604;1.364;2023-11-19T08:09:47;14.70;;;9.75;;
26407;SDS011;14583;43.604;1.364;2023-11-19T08:12:13;14.95;;;10.15;;
26407;SDS011;14583;43.604;1.364;2023-11-19T08:14:42;16.48;;;9.90;;
26407;SDS011;14583;43.604;1.364;2023-11-19T08:17:09;17.20;;;10.23;;
26407;SDS011;14583;43.604;1.364;2023-11-19T08:19:35;16.90;;;9.77;;
26407;SDS011;14583;43.604;1.364;2023-11-19T08:22:01;18.42;;;9.95;;
26407;SDS011;14583;43.604;1.364;2023-11-19T08:24:27;19.27;;;10.10;;
26407;SDS011;14583;43.604;1.364;2023-11-19T08:26:56;18.15;;;9.57;;
26407;SDS011;14583;43.604;1.364;2023-11-19T08:29:21;21.00;;;9.98;;
26407;SDS011;14583;43.604;1.364;2023-11-19T08:31:48;14.75;;;10.18;;
26407;SDS011;14583;43.604;1.364;2023-11-19T08:34:13;23.25;;;10.95;;
26407;SDS011;14583;43.604;1.364;2023-11-19T08:36:40;16.08;;;10.65;;
26407;SDS011;14583;43.604;1.364;2023-11-19T08:39:06;17.15;;;10.30;;
26407;SDS011;14583;43.604;1.364;2023-11-19T08:41:33;17.30;;;10.13;;
26407;SDS011;14583;43.604;1.364;2023-11-19T08:44:00;17.05;;;10.65;;
26407;SDS011;14583;43.604;1.364;2023-11-19T08:46:25;19.42;;;10.63;;
26407;SDS011;14583;43.604;1.364;2023-11-19T08:48:51;16.75;;;10.43;;
26407;SDS011;14583;43.604;1.364;2023-11-19T08:51:17;16.73;;;8.20;;
26407;SDS011;14583;43.604;1.364;2023-11-19T08:53:42;13.95;;;9.25;;
26407;SDS011;14583;43.604;1.364;2023-11-19T08:56:08;19.60;;;9.65;;
26407;SDS011;14583;43.604;1.364;2023-11-19T08:58:34;19.05;;;12.52;;
26407;SDS011;14583;43.604;1.364;2023-11-19T09:00:59;20.17;;;12.10;;
26407;SDS011;14583;43.604;1.364;2023-11-19T09:03:25;16.02;;;9.45;;
26407;SDS011;14583;43.604;1.364;2023-11-19T09:05:51;16.08;;;10.18;;
26407;SDS011;14583;43.604;1.364;2023-11-19T09:08:18;14.88;;;9.20;;
26407;SDS011;14583;43.604;1.364;2023-11-19T09:10:47;14.68;;;9.40;;
26407;SDS011;14583;43.604;1.364;2023-11-19T09:13:13;14.07;;;9.85;;
26407;SDS011;14583;43.604;1.364;2023-11-19T09:15:38;18.60;;;9.80;;
26407;SDS011;14583;43.604;1.364;2023-11-19T09:18:04;15.65;;;9.98;;
26407;SDS011;14583;43.604;1.364;2023-11-19T09:20:30;14.30;;;9.13;;
26407;SDS011;14583;43.604;1.364;2023-11-19T09:23:02;14.57;;;9.15;;
26407;SDS011;14583;43.604;1.364;2023-11-19T09:25:28;15.85;;;8.38;;
26407;SDS011;14583;43.604;1.364;2023-11-19T09:27:54;13.48;;;8.25;;
26407;SDS011;14583;43.604;1.364;2023-11-19T09:30:20;14.05;;;8.90;;
26407;SDS011;14583;43.604;1.364;2023-11-19T09:32:45;17.23;;;9.15;;
26407;SDS011;14583;43.604;1.364;2023-11-19T09:35:11;17.17;;;9.32;;
26407;SDS011;14583;43.604;1.364;2023-11-19T09:37:39;10.98;;;7.40;;
26407;SDS011;14583;43.604;1.364;2023-11-19T09:40:05;13.57;;;8.88;;
26407;SDS011;14583;43.604;1.364;2023-11-19T09:42:37;12.02;;;8.25;;
26407;SDS011;14583;43.604;1.364;2023-11-19T09:45:13;14.43;;;8.50;;
26407;SDS011;14583;43.604;1.364;2023-11-19T09:47:42;16.60;;;8.85;;
26407;SDS011;14583;43.604;1.364;2023-11-19T09:50:10;15.68;;;9.38;;
26407;SDS011;14583;43.604;1.364;2023-11-19T09:52:46;16.02;;;8.82;;
26407;SDS011;14583;43.604;1.364;2023-11-19T09:55:12;13.52;;;8.85;;
26407;SDS011;14583;43.604;1.364;2023-11-19T09:57:39;15.85;;;9.02;;
26407;SDS011;14583;43.604;1.364;2023-11-19T10:00:09;16.40;;;8.20;;
26407;SDS011;14583;43.604;1.364;2023-11-19T10:02:36;12.02;;;8.60;;
26407;SDS011;14583;43.604;1.364;2023-11-19T10:05:05;16.50;;;9.52;;
26407;SDS011;14583;43.604;1.364;2023-11-19T10:07:35;17.05;;;9.43;;
26407;SDS011;14583;43.604;1.364;2023-11-19T10:10:01;14.63;;;9.00;;
26407;SDS011;14583;43.604;1.364;2023-11-19T10:12:30;17.65;;;9.20;;
26407;SDS011;14583;43.604;1.364;2023-11-19T10:14:57;12.05;;;9.00;;
26407;SDS011;14583;43.604;1.364;2023-11-19T10:17:32;13.07;;;8.55;;
26407;SDS011;14583;43.604;1.364;2023-11-19T10:19:58;13.23;;;8.85;;
26407;SDS011;14583;43.604;1.364;2023-11-19T10:22:24;13.85;;;9.13;;
26407;SDS011;14583;43.604;1.364;2023-11-19T10:24:51;10.93;;;8.18;;
26407;SDS011;14583;43.604;1.364;2023-11-19T10:27:17;17.83;;;9.10;;
26407;SDS011;14583;43.604;1.364;2023-11-19T10:29:46;13.18;;;8.20;;
26407;SDS011;14583;43.604;1.364;2023-11-19T10:32:13;14.50;;;8.90;;
26407;SDS011;14583;43.604;1.364;2023-11-19T10:34:40;15.30;;;8.70;;
26407;SDS011;14583;43.604;1.364;2023-11-19T10:37:06;13.70;;;8.55;;
26407;SDS011;14583;43.604;1.364;2023-11-19T10:42:20;15.20;;;8.07;;
26407;SDS011;14583;43.604;1.364;2023-11-19T10:44:47;16.08;;;8.75;;
26407;SDS011;14583;43.604;1.364;2023-11-19T10:47:15;13.80;;;8.55;;
26407;SDS011;14583;43.604;1.364;2023-11-19T10:49:44;18.30;;;9.13;;
26407;SDS011;14583;43.604;1.364;2023-11-19T10:52:15;14.63;;;8.65;;
26407;SDS011;14583;43.604;1.364;2023-11-19T10:54:44;12.23;;;8.30;;
26407;SDS011;14583;43.604;1.364;2023-11-19T10:57:19;15.20;;;9.52;;
26407;SDS011;14583;43.604;1.364;2023-11-19T10:59:47;14.68;;;9.35;;
26407;SDS011;14583;43.604;1.364;2023-11-19T11:02:15;13.27;;;8.43;;
26407;SDS011;14583;43.604;1.364;2023-11-19T11:04:46;14.32;;;8.73;;
26407;SDS011;14583;43.604;1.364;2023-11-19T11:07:15;14.95;;;8.73;;
26407;SDS011;14583;43.604;1.364;2023-11-19T11:09:42;16.35;;;8.52;;
26407;SDS011;14583;43.604;1.364;2023-11-19T11:12:11;14.90;;;7.53;;
26407;SDS011;14583;43.604;1.364;2023-11-19T11:14:38;15.75;;;8.35;;
26407;SDS011;14583;43.604;1.364;2023-11-19T11:17:05;15.93;;;8.85;;
26407;SDS011;14583;43.604;1.364;2023-11-19T11:19:42;18.33;;;8.10;;
26407;SDS011;14583;43.604;1.364;2023-11-19T11:22:08;16.38;;;9.30;;
26407;SDS011;14583;43.604;1.364;2023-11-19T11:24:47;12.30;;;7.68;;
26407;SDS011;14583;43.604;1.364;2023-11-19T11:27:48;16.17;;;7.60;;
26407;SDS011;14583;43.604;1.364;2023-11-19T11:32:43;13.07;;;7.10;;
26407;SDS011;14583;43.604;1.364;2023-11-19T11:38:03;13.20;;;6.97;;
26407;SDS011;14583;43.604;1.364;2023-11-19T11:40:31;13.13;;;6.63;;
26407;SDS011;14583;43.604;1.364;2023-11-19T11:42:57;10.10;;;6.22;;
26407;SDS011;14583;43.604;1.364;2023-11-19T11:45:39;10.52;;;6.65;;
26407;SDS011;14583;43.604;1.364;2023-11-19T11:50:35;10.13;;;5.50;;
26407;SDS011;14583;43.604;1.364;2023-11-19T11:53:13;11.65;;;5.95;;
26407;SDS011;14583;43.604;1.364;2023-11-19T11:58:21;14.27;;;5.90;;
26407;SDS011;14583;43.604;1.364;2023-11-19T12:00:51;13.20;;;6.40;;
26407;SDS011;14583;43.604;1.364;2023-11-19T12:03:19;11.38;;;6.63;;
26407;SDS011;14583;43.604;1.364;2023-11-19T12:05:47;8.52;;;5.43;;
26407;SDS011;14583;43.604;1.364;2023-11-19T12:08:14;10.52;;;5.70;;
26407;SDS011;14583;43.604;1.364;2023-11-19T12:13:14;10.63;;;6.13;;
26407;SDS011;14583;43.604;1.364;2023-11-19T12:18:32;16.02;;;6.20;;
26407;SDS011;14583;43.604;1.364;2023-11-19T12:21:00;10.10;;;5.60;;
26407;SDS011;14583;43.604;1.364;2023-11-19T12:23:29;8.50;;;5.53;;
26407;SDS011;14583;43.604;1.364;2023-11-19T12:25:56;10.52;;;5.68;;
26407;SDS011;14583;43.604;1.364;2023-11-19T12:28:22;13.23;;;7.60;;
26407;SDS011;14583;43.604;1.364;2023-11-19T12:30:49;22.40;;;13.13;;
26407;SDS011;14583;43.604;1.364;2023-11-19T12:33:16;18.92;;;10.35;;
26407;SDS011;14583;43.604;1.364;2023-11-19T12:35:43;41.95;;;23.70;;
26407;SDS011;14583;43.604;1.364;2023-11-19T12:38:24;16.88;;;9.32;;
26407;SDS011;14583;43.604;1.364;2023-11-19T12:43:29;7.88;;;4.70;;
26407;SDS011;14583;43.604;1.364;2023-11-19T12:45:55;11.90;;;5.93;;
26407;SDS011;14583;43.604;1.364;2023-11-19T12:48:21;10.45;;;6.07;;
26407;SDS011;14583;43.604;1.364;2023-11-19T12:51:05;11.05;;;6.18;;
26407;SDS011;14583;43.604;1.364;2023-11-19T12:53:46;17.33;;;5.38;;
26407;SDS011;14583;43.604;1.364;2023-11-19T12:58:41;9.35;;;5.07;;
26407;SDS011;14583;43.604;1.364;2023-11-19T13:01:08;8.30;;;4.53;;
26407;SDS011;14583;43.604;1.364;2023-11-19T13:03:37;9.70;;;4.20;;
26407;SDS011;14583;43.604;1.364;2023-11-19T13:06:10;9.48;;;4.82;;
26407;SDS011;14583;43.604;1.364;2023-11-19T13:08:38;9.88;;;5.15;;
26407;SDS011;14583;43.604;1.364;2023-11-19T13:14:05;8.88;;;4.43;;
26407;SDS011;14583;43.604;1.364;2023-11-19T13:16:36;11.30;;;5.82;;
26407;SDS011;14583;43.604;1.364;2023-11-19T13:19:02;7.70;;;5.32;;
26407;SDS011;14583;43.604;1.364;2023-11-19T13:21:28;14.77;;;5.82;;
26407;SDS011;14583;43.604;1.364;2023-11-19T13:23:55;12.70;;;5.78;;
26407;SDS011;14583;43.604;1.364;2023-11-19T13:26:21;8.13;;;4.63;;
26407;SDS011;14583;43.604;1.364;2023-11-19T13:28:47;9.18;;;5.20;;
26407;SDS011;14583;43.604;1.364;2023-11-19T13:31:13;9.02;;;4.55;;
26407;SDS011;14583;43.604;1.364;2023-11-19T13:33:39;13.63;;;5.35;;
26407;SDS011;14583;43.604;1.364;2023-11-19T13:36:08;13.30;;;4.82;;
26407;SDS011;14583;43.604;1.364;2023-11-19T13:38:34;9.02;;;4.57;;
26407;SDS011;14583;43.604;1.364;2023-11-19T13:41:01;13.45;;;5.00;;
26407;SDS011;14583;43.604;1.364;2023-11-19T13:43:31;10.48;;;6.00;;
26407;SDS011;14583;43.604;1.364;2023-11-19T13:45:58;14.02;;;6.95;;
26407;SDS011;14583;43.604;1.364;2023-11-19T13:48:24;11.32;;;6.35;;
26407;SDS011;14583;43.604;1.364;2023-11-19T13:50:51;8.35;;;4.68;;
26407;SDS011;14583;43.604;1.364;2023-11-19T13:53:17;10.43;;;5.20;;
26407;SDS011;14583;43.604;1.364;2023-11-19T13:55:43;9.35;;;5.63;;
26407;SDS011;14583;43.604;1.364;2023-11-19T13:58:09;10.10;;;4.82;;
26407;SDS011;14583;43.604;1.364;2023-11-19T14:00:35;9.68;;;5.15;;
26407;SDS011;14583;43.604;1.364;2023-11-19T14:03:01;12.18;;;6.13;;
26407;SDS011;14583;43.604;1.364;2023-11-19T14:05:28;10.98;;;6.07;;
26407;SDS011;14583;43.604;1.364;2023-11-19T14:07:53;7.45;;;4.38;;
26407;SDS011;14583;43.604;1.364;2023-11-19T14:10:24;8.70;;;5.10;;
26407;SDS011;14583;43.604;1.364;2023-11-19T14:12:55;8.18;;;4.85;;
26407;SDS011;14583;43.604;1.364;2023-11-19T14:15:21;11.40;;;4.53;;
26407;SDS011;14583;43.604;1.364;2023-11-19T14:17:47;8.18;;;4.10;;
26407;SDS011;14583;43.604;1.364;2023-11-19T14:20:13;7.50;;;3.88;;
26407;SDS011;14583;43.604;1.364;2023-11-19T14:22:42;7.70;;;3.95;;
26407;SDS011;14583;43.604;1.364;2023-11-19T14:25:09;7.20;;;4.05;;
26407;SDS011;14583;43.604;1.364;2023-11-19T14:27:36;8.27;;;4.70;;
26407;SDS011;14583;43.604;1.364;2023-11-19T14:30:05;12.68;;;5.07;;
26407;SDS011;14583;43.604;1.364;2023-11-19T14:32:50;9.15;;;3.88;;
26407;SDS011;14583;43.604;1.364;2023-11-19T14:35:16;7.15;;;4.30;;
26407;SDS011;14583;43.604;1.364;2023-11-19T14:37:41;11.88;;;4.22;;
26407;SDS011;14583;43.604;1.364;2023-11-19T14:40:07;5.97;;;3.53;;
26407;SDS011;14583;43.604;1.364;2023-11-19T14:42:36;6.95;;;3.88;;
26407;SDS011;14583;43.604;1.364;2023-11-19T14:45:02;5.72;;;4.38;;
26407;SDS011;14583;43.604;1.364;2023-11-19T14:47:28;7.32;;;4.40;;
26407;SDS011;14583;43.604;1.364;2023-11-19T14:49:54;11.10;;;4.63;;
26407;SDS011;14583;43.604;1.364;2023-11-19T14:52:20;10.35;;;6.22;;
26407;SDS011;14583;43.604;1.364;2023-11-19T14:54:45;6.80;;;4.50;;
26407;SDS011;14583;43.604;1.364;2023-11-19T14:57:11;7.60;;;4.22;;
26407;SDS011;14583;43.604;1.364;2023-11-19T14:59:38;6.07;;;4.28;;